NAV weather

Nevşehir Kapadokya Airport
Nevşehir, Nevşehir Province, Turkey

Public forecast

Using degrees Celsius for public forecast. Weather courtesy of forecast.io.

METAR (pilot weather report)

Retrieved 2019/06/25 08:20 UTC (33 minutes ago):

LTAZ 250820Z VRB02KT 9999 FEW040 29/14 Q1017

TAF (pilot weather forecast)

Retrieved 2019/06/25 06:00 UTC (3 hours ago):

TAF LTAZ 250440Z 2506/2606 VRB02KT CAVOK BECMG 2507/2510 FEW040 BECMG 2516/2519 CAVOK